Estación Meteorológica Peña el Pijo (Robertgarden) [ 12/17/17 01:31:40 CET ]

Fecha Hora Presion(HPa) Temp (°C) Humedad % Rocio (°C) Viento ( m/s) Direccion Lluvia 1Hora(mm) Lluvia 24H(mm) LLuvia Total(mm)
2017-Oct-08 01:02:03 1014.300 10.8 79 7.3         1457.65
2017-Oct-08 02:01:50 1014.100 9.8 81 6.7         1457.65
2017-Oct-08 03:01:40 1013.800 9.2 83 6.4         1457.65
2017-Oct-08 04:01:40 1013.600 8.2 84 5.7         1457.65
2017-Oct-08 05:01:42 1013.300 7.9 85 5.5         1457.65
2017-Oct-08 06:04:13 1013.200 7.2 86 5.0         1457.65
2017-Oct-08 07:01:51 1013.000 7.3 86 5.1         1457.65
2017-Oct-08 08:01:46 1013.200 6.3 87 4.3         1457.65
2017-Oct-08 09:01:47 1013.500 6.1 87 4.1         1457.65
2017-Oct-08 10:01:49 1013.600 13.0 89 11.2         1457.65
2017-Oct-08 11:01:55 1013.700 19.8 68 13.7         1457.65
2017-Oct-08 12:01:50 1013.400 25.0 50 13.9         1457.65
2017-Oct-08 13:01:55 1013.300 26.9 37 10.9         1457.65
2017-Oct-08 14:01:42 1012.700 26.8 35 10.0         1457.65
2017-Oct-08 15:01:53 1012.000 27.4 32 9.2         1457.65
2017-Oct-08 16:01:53 1011.400 27.9 31 9.1         1457.65
2017-Oct-08 17:01:50 1011.300 28.3 29 8.5         1457.65
2017-Oct-08 18:01:45 1011.200 27.1 29 7.5         1457.65
2017-Oct-08 19:01:59 1011.700 22.9 44 9.9         1457.65
2017-Oct-08 20:01:42 1012.100 19.8 54 10.2         1457.65
2017-Oct-08 21:01:51 1012.700 16.4 62 9.1         1457.65
2017-Oct-08 22:01:31 1013.300 13.9 68 8.1         1457.65
2017-Oct-08 23:01:49 1013.600 12.1 72 7.2         1457.65

Temperatura Máxima:28°    Temperatura Mínima:
Presión Máxima:1014.300 Hpa    Presión Mínima:1011.200 Hpa


Volver